Terminal Aerodrome Forecast
Issued by NWS Grand Forks, ND

Home | Current Version | Previous Version | Text Only | Print | Product List | Glossary On
Versions: 1 2 3 4 5 6 7 8 9 10 11 12 13 14 15 16 17 18 19 20 21 22 23 24 25 26 27 28 29 30 31 32 33 34 35 36 37 38 39 40 41 42 43 44 45 46 47 48
587
FTUS43 KFGF 161740
TAFGFK
TAF
KGFK 161740Z 1618/1718 35005KT P6SM FEW160
     FM170200 14005KT P6SM OVC120
     FM170600 00000KT P6SM BKN070
     FM171100 VRB03KT P6SM BKN018=

USA.gov is the U.S. government's official web portal to all federal, state and local government web resources and services.